Pagrindinis puslapis
METAR-TAF:

METAR-TAF

Oro uostai :

Kristiansund, Norvegija

platuma: 63-07N, ilguma: 007-50E, Aukštis: 6 m

Dabartinis oras

Ataskaita buvo paskelbta 1 valandą ir 8 minutes, ne 02:20 UTC
Vėjas 9 kt iš Pietų/Pietvakarių, svyruoja nuo Pietų ir Vakarų/Pietvakarių
Temperatūra 10°C
Drėgmė 82%
Slėgis 1010 hPa
Matomumas: 4800 m
dulksna

METAR: ENKB 060220Z AUTO 21009KT 170V240 4800 DZ FEW015/// SCT021/// OVC032/// 10/07 Q1010 RMK WIND 745FT 22015KT

Laikas: 05:28 (03:28 UTC)

Prognozė

Ataskaita buvo paskelbta 1 valandą ir 28 minutes, ne 02:00 UTC
Prognozė galioja nuo 06 metu 03 UTC su 06 metu 12 UTC
Vėjas 12 kt iš Pietvakarių
Matomumas 10 km arba daugiau
Išsisklaidę debesys ne aukštis 1200 ft
Su prošvaistėmis ne aukštis 3000 ft
lietus
Laikinai
nuo 06 metu 03 UTC su 06 metu 09 UTC
Su prošvaistėmis ne aukštis 1200 ft, Liūtiniai kamuoliniai debesys.
lietus
Laikinai
nuo 06 metu 09 UTC su 06 metu 12 UTC
lietus

TAF: ENKB 060200Z 0603/0612 22012KT 9999 -SHRA SCT012 BKN030 TEMPO 0603/0609 SHRA BKN012CB TEMPO 0609/0612 RA

Orai ataskaitas ir orų prognozės (METAR, TAF).

turimą stotys yra geltonos ir raudonos taškus žemėlapyje.

Perkelti pele per norėdami pamatyti stoties vardą.

Tada spustelėkite, norėdami matyti oro stebėjimo ir prognozės.

Norėdami pakeisti žemėlapį: spustelėkite ant žalios mygtukų su juodo kryžiaus žemyn,; žalią mygtuką su brūkšneliu, jei norite nutolinti; arba žalių rodyklių gretimoms žemėlapius.


METAR-TAF: